Weather at Japura Airport

Public forecast

Using degrees Celsius for public forecast. Weather courtesy of forecast.io.

Closest aviation weather report (METAR) to Japura Airport

Closest report is Sultan Syarif Kasim Ii (Simpang Tiga) Airport, 72.4 nm (134.1 km) NW. Retrieved 2022/06/29 21:30 UTC (12 minutes ago):

WIBB 292130Z AUTO 31002KT 9999 ////// 24/22 Q1006

Aviation forecast (TAF) for Japura Airport

Forecast is more than 12 hours old.

Retrieved 2017/11/23 00:00 UTC (5 years ago):

TAF WIBJ 232300Z 2400/2424 00000KT 4000 HZ SCT015 BECMG 2401/2403 35006KT 9000